Time;durP1;ratioP1;P1;durP2;ratioP2;P2;SDS_P1;SDS_P2;PMS_P1;PMS_P2;Temp;Humidity;BMP_temperature;BMP_pressure;BME280_temperature;BME280_humidity;BME280_pressure;Samples;Min_cycle;Max_cycle;Signal;HPM_P1;HPM_P2
2022/10/01 00:01:01;;;;;;;12.45;10.52;;;11.40;91.60;;;;;;5078649;28;20035;-78
2022/10/01 00:03:28;;;;;;;11.52;10.43;;;11.30;91.50;;;;;;5095212;28;20043;-79
2022/10/01 00:06:10;;;;;;;13.68;12.23;;;11.30;92.10;;;;;;5112205;28;20399;-77
2022/10/01 00:08:40;;;;;;;16.48;13.07;;;11.30;92.90;;;;;;5095129;28;20044;-78
2022/10/01 00:11:08;;;;;;;13.93;12.45;;;11.20;92.90;;;;;;5112101;28;20044;-78
2022/10/01 00:13:35;;;;;;;12.45;10.68;;;11.20;92.90;;;;;;5111949;28;20035;-78
2022/10/01 00:16:04;;;;;;;13.10;11.52;;;11.20;92.10;;;;;;5111969;28;20122;-79
2022/10/01 00:18:30;;;;;;;14.48;12.77;;;11.20;92.50;;;;;;5112227;28;20043;-78
2022/10/01 00:20:55;;;;;;;14.68;12.98;;;11.20;92.60;;;;;;5094940;28;20046;-80
2022/10/01 00:23:21;;;;;;;13.88;12.40;;;11.20;93.20;;;;;;5112049;28;20052;-79
2022/10/01 00:25:49;;;;;;;12.98;11.25;;;11.10;93.00;;;;;;5111971;28;20082;-78
2022/10/01 00:28:14;;;;;;;14.15;12.18;;;11.20;92.90;;;;;;5094894;28;20040;-79
2022/10/01 00:30:46;;;;;;;11.93;10.68;;;11.20;92.80;;;;;;5112114;28;20040;-80
2022/10/01 00:33:12;;;;;;;13.00;11.65;;;11.20;92.50;;;;;;5111810;28;20070;-78
2022/10/01 00:35:38;;;;;;;15.02;12.05;;;11.20;92.60;;;;;;5111740;28;20094;-78
2022/10/01 00:38:03;;;;;;;12.38;10.60;;;11.20;92.80;;;;;;5111714;28;20036;-78
2022/10/01 00:40:30;;;;;;;13.68;11.23;;;11.20;93.20;;;;;;5111659;28;20052;-77
2022/10/01 00:42:55;;;;;;;13.82;12.32;;;11.20;92.50;;;;;;5111594;28;20520;-78
2022/10/01 00:45:21;;;;;;;16.55;13.68;;;11.20;93.00;;;;;;5094671;28;20040;-78
2022/10/01 00:47:52;;;;;;;12.63;11.35;;;11.10;93.30;;;;;;5114401;28;20031;-79
2022/10/01 00:50:27;;;;;;;11.20;10.02;;;11.10;93.30;;;;;;5115586;28;20124;-78
2022/10/01 00:52:58;;;;;;;12.48;11.00;;;11.10;93.10;;;;;;5115538;28;20043;-78
2022/10/01 00:55:36;;;;;;;13.10;11.68;;;11.10;93.10;;;;;;5115591;28;20043;-80
2022/10/01 00:58:07;;;;;;;12.15;10.73;;;11.10;93.00;;;;;;5115597;28;20043;-78
2022/10/01 01:00:35;;;;;;;13.35;11.98;;;11.10;93.40;;;;;;5115610;28;20083;-78
2022/10/01 01:03:01;;;;;;;12.57;11.32;;;11.10;93.00;;;;;;5098201;28;20036;-80
2022/10/01 01:05:27;;;;;;;13.98;11.00;;;11.00;93.60;;;;;;5115176;28;20039;-79
2022/10/01 01:07:53;;;;;;;10.80;9.70;;;11.00;93.90;;;;;;5081608;28;20035;-81
2022/10/01 01:10:36;;;;;;;11.68;9.43;;;11.00;93.70;;;;;;5081471;28;20492;-79
2022/10/01 01:13:16;;;;;;;9.40;7.90;;;11.00;93.70;;;;;;5115117;28;20067;-79
2022/10/01 01:15:52;;;;;;;9.55;8.57;;;11.00;93.80;;;;;;5098364;28;20039;-81
2022/10/01 01:18:29;;;;;;;10.43;9.43;;;11.00;93.50;;;;;;5114937;28;20051;-79
2022/10/01 01:21:12;;;;;;;11.27;9.70;;;11.00;93.70;;;;;;5115026;28;20529;-81
2022/10/01 01:23:46;;;;;;;10.45;9.35;;;11.00;93.90;;;;;;5098194;28;20395;-81
2022/10/01 01:26:30;;;;;;;10.15;9.15;;;11.00;94.00;;;;;;5114831;28;20043;-80
2022/10/01 01:29:22;;;;;;;10.75;9.50;;;11.00;93.70;;;;;;5115112;28;20043;-80
2022/10/01 01:31:48;;;;;;;10.98;9.13;;;11.00;94.10;;;;;;5097807;28;20130;-80
2022/10/01 01:34:21;;;;;;;10.40;8.88;;;11.00;94.40;;;;;;5114915;28;20078;-82
2022/10/01 01:36:53;;;;;;;10.27;7.72;;;11.00;94.00;;;;;;5114744;28;20044;-82
2022/10/01 01:39:22;;;;;;;9.20;8.18;;;11.00;94.50;;;;;;5114506;28;20059;-81
2022/10/01 01:41:58;;;;;;;9.57;8.57;;;11.00;94.40;;;;;;5097519;28;20062;-81
2022/10/01 01:44:28;;;;;;;8.38;7.57;;;11.00;94.50;;;;;;5097603;28;20039;-81
2022/10/01 01:46:57;;;;;;;9.88;8.07;;;11.00;94.50;;;;;;5114402;28;20039;-81
2022/10/01 01:49:24;;;;;;;8.25;7.40;;;11.00;94.80;;;;;;5114474;28;20036;-79
2022/10/01 01:52:12;;;;;;;9.52;7.95;;;11.00;94.80;;;;;;5114382;28;20044;-80
2022/10/01 01:54:38;;;;;;;8.70;7.80;;;11.00;95.10;;;;;;5114344;28;20035;-80
2022/10/01 01:57:06;;;;;;;10.25;7.93;;;11.00;95.10;;;;;;5080628;28;20043;-81
2022/10/01 01:59:32;;;;;;;7.60;6.40;;;11.00;94.60;;;;;;5096792;28;20404;-79
2022/10/01 02:01:59;;;;;;;9.07;8.18;;;11.00;94.60;;;;;;5097335;28;20070;-82
2022/10/01 02:04:35;;;;;;;9.40;7.70;;;11.00;94.60;;;;;;5114469;28;20039;-83
2022/10/01 02:07:30;;;;;;;7.68;6.88;;;11.10;94.60;;;;;;5114226;28;20560;-82
2022/10/01 02:10:07;;;;;;;7.47;6.72;;;11.10;94.60;;;;;;5094000;28;20519;-82
2022/10/01 02:13:00;;;;;;;8.00;7.30;;;11.10;94.30;;;;;;5097045;28;20036;-81
2022/10/01 02:15:53;;;;;;;6.45;5.80;;;11.10;94.40;;;;;;5097003;28;20046;-83
2022/10/01 02:18:43;;;;;;;7.88;6.10;;;11.20;94.10;;;;;;5096907;28;20047;-82
2022/10/01 02:21:18;;;;;;;6.22;5.38;;;11.20;94.20;;;;;;5113877;28;20039;-82
2022/10/01 02:23:51;;;;;;;5.82;5.07;;;11.20;93.90;;;;;;5096857;28;20053;-81
2022/10/01 02:26:19;;;;;;;6.50;5.70;;;11.30;94.10;;;;;;5113710;28;20054;-82
2022/10/01 02:28:48;;;;;;;7.07;6.30;;;11.30;94.20;;;;;;5113705;28;20452;-80
2022/10/01 02:31:16;;;;;;;6.82;6.22;;;11.30;94.30;;;;;;5113744;28;20039;-82
2022/10/01 02:33:45;;;;;;;7.00;5.88;;;11.30;94.40;;;;;;5097161;28;20114;-83
2022/10/01 02:36:12;;;;;;;7.03;6.32;;;11.30;94.40;;;;;;5113551;28;20080;-79
2022/10/01 02:38:41;;;;;;;6.63;6.03;;;11.30;94.40;;;;;;5113340;28;20091;-83
2022/10/01 02:41:10;;;;;;;7.57;6.88;;;11.30;94.40;;;;;;5113464;28;20565;-82
2022/10/01 02:43:50;;;;;;;7.28;5.95;;;11.40;94.50;;;;;;5096364;28;20040;-82
2022/10/01 02:46:36;;;;;;;7.20;6.22;;;11.40;94.60;;;;;;5113443;28;20422;-82
2022/10/01 02:49:03;;;;;;;6.18;5.57;;;11.40;94.50;;;;;;5113649;28;20038;-81
2022/10/01 02:51:52;;;;;;;6.82;5.28;;;11.40;94.60;;;;;;5113112;28;20046;-83
2022/10/01 02:54:25;;;;;;;5.18;4.68;;;11.40;94.40;;;;;;5113204;28;20043;-82
2022/10/01 02:59:35;;;;;;;7.30;5.80;;;11.40;94.50;;;;;;5113421;28;20058;-79
2022/10/01 03:02:01;;;;;;;5.20;4.30;;;11.50;94.50;;;;;;5113957;28;20126;-79
2022/10/01 03:04:26;;;;;;;5.80;4.30;;;11.50;94.20;;;;;;5096420;28;20040;-81
2022/10/01 03:06:55;;;;;;;3.92;3.53;;;11.50;94.40;;;;;;5096610;28;20039;-80
2022/10/01 03:09:20;;;;;;;4.30;3.70;;;11.50;94.40;;;;;;5097018;28;20095;-82
2022/10/01 03:11:46;;;;;;;3.60;3.30;;;11.50;94.30;;;;;;5079449;28;20476;-80
2022/10/01 03:14:12;;;;;;;2.72;2.53;;;11.50;94.30;;;;;;5079551;28;20035;-82
2022/10/01 03:16:37;;;;;;;3.13;2.83;;;11.50;94.20;;;;;;5113486;28;20066;-81
2022/10/01 03:19:03;;;;;;;3.50;3.20;;;11.60;94.00;;;;;;5096664;28;20127;-82
2022/10/01 03:21:29;;;;;;;4.10;2.63;;;11.60;93.90;;;;;;5096333;28;20071;-82
2022/10/01 03:23:54;;;;;;;3.47;3.05;;;11.60;94.00;;;;;;5096541;28;20048;-82
2022/10/01 03:26:20;;;;;;;4.35;2.78;;;11.60;94.50;;;;;;5096517;28;20178;-81
2022/10/01 03:28:46;;;;;;;3.40;2.90;;;11.70;94.30;;;;;;5079709;28;20518;-80
2022/10/01 03:31:11;;;;;;;3.63;2.75;;;11.60;94.60;;;;;;5096002;28;20042;-82
2022/10/01 03:33:37;;;;;;;3.10;2.70;;;11.70;94.60;;;;;;5113194;28;20035;-80
2022/10/01 03:36:03;;;;;;;2.90;2.58;;;11.70;94.40;;;;;;5096204;28;20039;-84
2022/10/01 03:38:30;;;;;;;1.95;1.75;;;11.70;94.70;;;;;;5095968;28;20499;-81
2022/10/01 03:40:56;;;;;;;3.85;3.08;;;11.70;94.60;;;;;;5079300;28;20048;-83
2022/10/01 03:43:21;;;;;;;3.28;2.97;;;11.70;94.70;;;;;;5112832;28;20051;-81
2022/10/01 03:45:47;;;;;;;3.35;3.00;;;11.80;94.30;;;;;;5095852;28;20044;-82
2022/10/01 03:48:13;;;;;;;3.00;2.70;;;11.70;95.00;;;;;;5095987;28;20126;-82
2022/10/01 03:50:39;;;;;;;3.47;3.03;;;11.70;94.90;;;;;;5096135;28;20075;-86
2022/10/01 03:53:05;;;;;;;3.75;3.38;;;11.80;94.80;;;;;;5095802;28;20040;-85
2022/10/01 03:55:31;;;;;;;5.43;2.85;;;11.80;95.20;;;;;;5079378;28;20039;-84
2022/10/01 03:57:57;;;;;;;3.42;3.13;;;11.80;95.00;;;;;;5096292;28;20035;-82
2022/10/01 04:00:24;;;;;;;4.10;3.47;;;11.90;95.40;;;;;;5095687;28;20501;-81
2022/10/01 04:02:50;;;;;;;4.57;4.03;;;11.90;95.50;;;;;;5112689;28;20039;-79
2022/10/01 04:05:15;;;;;;;4.35;3.72;;;11.90;95.00;;;;;;5112410;28;20131;-80
2022/10/01 04:07:42;;;;;;;4.57;4.18;;;11.90;95.20;;;;;;5095849;28;20035;-82
2022/10/01 04:10:08;;;;;;;4.47;3.88;;;12.00;95.50;;;;;;5079016;28;20422;-81
2022/10/01 04:12:33;;;;;;;4.13;3.78;;;12.00;95.40;;;;;;5078634;28;20042;-79
2022/10/01 04:14:59;;;;;;;4.20;3.80;;;12.00;95.30;;;;;;5095510;28;20035;-83
2022/10/01 04:17:25;;;;;;;5.82;5.18;;;12.00;95.10;;;;;;5113186;28;20039;-85
2022/10/01 04:19:51;;;;;;;4.72;4.28;;;12.00;95.50;;;;;;5112722;28;20106;-84
2022/10/01 04:22:17;;;;;;;5.72;4.65;;;12.20;95.80;;;;;;5114065;28;20043;-80
2022/10/01 04:24:43;;;;;;;6.32;4.97;;;12.10;95.90;;;;;;5116763;28;20054;-83
2022/10/01 04:27:08;;;;;;;5.60;5.10;;;12.20;95.70;;;;;;5083183;28;20036;-83
2022/10/01 04:29:34;;;;;;;5.80;5.18;;;12.20;95.70;;;;;;5099684;28;20519;-84
2022/10/01 04:32:02;;;;;;;5.88;5.28;;;12.30;95.60;;;;;;5114734;28;20043;-81
2022/10/01 04:37:12;;;;;;;6.95;6.35;;;12.30;96.10;;;;;;5098800;28;20097;-77
2022/10/01 04:39:38;;;;;;;7.43;5.72;;;12.30;96.10;;;;;;5095622;28;20063;-77
2022/10/01 04:42:04;;;;;;;7.50;6.03;;;12.40;96.10;;;;;;5112232;28;20777;-79
2022/10/01 04:44:30;;;;;;;8.05;6.07;;;12.40;96.20;;;;;;5078661;28;20040;-79
2022/10/01 04:46:56;;;;;;;6.43;5.80;;;12.40;95.80;;;;;;5097732;28;20510;-77
2022/10/01 04:49:22;;;;;;;11.30;6.45;;;12.50;95.50;;;;;;5096188;28;20132;-79
2022/10/01 04:51:48;;;;;;;6.57;5.88;;;12.50;95.60;;;;;;5113066;28;20040;-81
2022/10/01 04:54:13;;;;;;;6.38;5.55;;;12.50;95.40;;;;;;5095866;28;20048;-78
2022/10/01 04:56:39;;;;;;;7.07;4.75;;;12.50;95.50;;;;;;5112757;28;20035;-78
2022/10/01 04:59:05;;;;;;;7.47;5.50;;;12.50;95.40;;;;;;5095609;28;20897;-79
2022/10/01 05:01:31;;;;;;;7.78;6.00;;;12.50;95.40;;;;;;5113041;28;20066;-79
2022/10/01 05:03:57;;;;;;;12.02;5.45;;;12.50;95.40;;;;;;5114378;28;20479;-80
2022/10/01 05:06:23;;;;;;;10.45;6.70;;;12.50;95.60;;;;;;5079263;28;20036;-80
2022/10/01 05:08:50;;;;;;;13.40;7.28;;;12.50;95.40;;;;;;5094618;28;20040;-80
2022/10/01 05:11:17;;;;;;;9.43;6.22;;;12.50;95.50;;;;;;5112532;28;20078;-78
2022/10/01 05:13:43;;;;;;;8.07;4.63;;;12.50;95.40;;;;;;5096884;28;20536;-77
2022/10/01 05:16:08;;;;;;;10.23;5.32;;;12.50;95.50;;;;;;5098730;28;20075;-77
2022/10/01 05:18:34;;;;;;;8.38;5.40;;;12.50;95.90;;;;;;5098896;28;20050;-80
2022/10/01 05:21:04;;;;;;;9.20;5.47;;;12.50;96.20;;;;;;5115826;28;20130;-80
2022/10/01 05:23:30;;;;;;;10.98;5.72;;;12.60;96.10;;;;;;5098591;28;20547;-81
2022/10/01 05:25:56;;;;;;;9.77;5.28;;;12.60;95.80;;;;;;5098489;28;20172;-80
2022/10/01 05:28:21;;;;;;;10.90;6.03;;;12.50;95.90;;;;;;5115834;28;20036;-82
2022/10/01 05:30:47;;;;;;;11.05;5.43;;;12.50;95.70;;;;;;5082318;28;20067;-79
2022/10/01 05:33:13;;;;;;;11.85;6.10;;;12.60;95.80;;;;;;5098490;28;20047;-80
2022/10/01 05:35:39;;;;;;;6.70;4.80;;;12.60;95.90;;;;;;5082149;28;20043;-80
2022/10/01 05:38:05;;;;;;;9.13;4.53;;;12.60;95.70;;;;;;5081416;28;20093;-81
2022/10/01 05:40:32;;;;;;;12.95;5.15;;;12.70;95.50;;;;;;5081146;28;20055;-81
2022/10/01 05:42:59;;;;;;;10.20;5.25;;;12.80;95.50;;;;;;5098162;28;20050;-80
2022/10/01 05:45:29;;;;;;;16.52;5.80;;;12.80;95.70;;;;;;5081312;28;20035;-79
2022/10/01 05:47:59;;;;;;;11.07;4.82;;;12.80;95.50;;;;;;5115197;28;20058;-80
2022/10/01 05:50:25;;;;;;;12.32;5.80;;;12.80;95.50;;;;;;5115406;28;20495;-79
2022/10/01 05:52:53;;;;;;;10.70;5.60;;;12.70;95.50;;;;;;5114959;28;20036;-82
2022/10/01 05:55:20;;;;;;;12.75;4.78;;;12.80;95.60;;;;;;5114689;28;20043;-81
2022/10/01 05:58:00;;;;;;;11.57;5.80;;;12.70;95.60;;;;;;5115280;28;20048;-81
2022/10/01 06:00:27;;;;;;;13.02;5.18;;;12.80;95.70;;;;;;5098728;28;20075;-80
2022/10/01 06:02:54;;;;;;;17.38;6.13;;;12.80;95.70;;;;;;5115109;28;20043;-79
2022/10/01 06:05:20;;;;;;;12.20;5.45;;;12.80;95.60;;;;;;5114530;28;20040;-80
2022/10/01 06:07:47;;;;;;;9.65;5.30;;;12.80;95.60;;;;;;5098079;28;20046;-81
2022/10/01 06:10:13;;;;;;;12.15;5.28;;;12.80;95.80;;;;;;5081162;28;20039;-80
2022/10/01 06:12:39;;;;;;;11.45;5.50;;;12.90;95.80;;;;;;5080899;28;20468;-81
2022/10/01 06:15:05;;;;;;;12.75;5.78;;;12.90;96.00;;;;;;5080713;28;20550;-80
2022/10/01 06:17:31;;;;;;;8.80;4.93;;;12.90;96.00;;;;;;5080861;28;20054;-82
2022/10/01 06:19:57;;;;;;;19.58;6.28;;;13.00;95.90;;;;;;5097680;28;20047;-81
2022/10/01 06:22:23;;;;;;;18.17;6.00;;;13.00;96.40;;;;;;5114583;28;20055;-80
2022/10/01 06:24:48;;;;;;;15.57;5.47;;;13.00;96.20;;;;;;5114445;28;20484;-78
2022/10/01 06:27:14;;;;;;;17.00;6.72;;;13.00;95.90;;;;;;5080960;28;20040;-82
2022/10/01 06:29:40;;;;;;;13.68;5.75;;;13.00;96.00;;;;;;5097221;28;20575;-79
2022/10/01 06:32:06;;;;;;;16.73;6.13;;;13.00;95.90;;;;;;5080222;28;20089;-84
2022/10/01 06:34:33;;;;;;;17.92;6.75;;;13.10;95.90;;;;;;5083302;28;20036;-81
2022/10/01 06:36:58;;;;;;;15.00;6.22;;;13.10;95.90;;;;;;5081413;28;20071;-82
2022/10/01 06:39:24;;;;;;;21.52;5.25;;;13.10;95.90;;;;;;5080669;28;20052;-80
2022/10/01 06:41:50;;;;;;;12.77;5.30;;;13.20;96.00;;;;;;5081335;28;20047;-82
2022/10/01 06:44:15;;;;;;;16.50;6.03;;;13.10;95.90;;;;;;5097445;28;20047;-82
2022/10/01 06:46:41;;;;;;;23.85;5.15;;;13.10;96.00;;;;;;5063876;28;20381;-81
2022/10/01 06:49:07;;;;;;;15.77;5.97;;;13.20;95.90;;;;;;5097545;28;20391;-82
2022/10/01 06:54:17;;;;;;;15.43;4.22;;;13.20;95.90;;;;;;5085865;28;20498;-82
2022/10/01 06:56:43;;;;;;;12.55;3.28;;;13.20;95.90;;;;;;5097568;28;20136;-82
2022/10/01 06:59:08;;;;;;;15.43;3.40;;;13.20;95.90;;;;;;5097324;28;20050;-80
2022/10/01 07:01:35;;;;;;;13.43;3.60;;;13.10;95.70;;;;;;5080173;28;20048;-85
2022/10/01 07:04:01;;;;;;;10.70;3.60;;;13.10;95.70;;;;;;5063623;28;20050;-81
2022/10/01 07:06:27;;;;;;;14.05;2.85;;;13.00;95.60;;;;;;5096596;28;20035;-83
2022/10/01 07:08:53;;;;;;;10.45;2.75;;;13.00;95.60;;;;;;5114253;28;20082;-81
2022/10/01 07:11:19;;;;;;;10.77;3.17;;;13.00;95.60;;;;;;5080711;28;20066;-82
2022/10/01 07:13:45;;;;;;;15.88;5.40;;;13.00;95.50;;;;;;5079792;28;20385;-81
2022/10/01 07:16:10;;;;;;;12.30;5.28;;;13.00;95.40;;;;;;5079641;28;20042;-81
2022/10/01 07:18:36;;;;;;;13.27;5.03;;;13.00;95.30;;;;;;5096487;28;20130;-79
2022/10/01 07:21:02;;;;;;;12.55;4.60;;;13.00;95.30;;;;;;5096438;28;20038;-80
2022/10/01 07:23:28;;;;;;;11.80;3.45;;;13.10;95.20;;;;;;5113119;28;20039;-80
2022/10/01 07:25:53;;;;;;;15.23;4.70;;;13.10;95.10;;;;;;5079205;28;20086;-81
2022/10/01 07:28:22;;;;;;;12.18;3.38;;;13.20;95.00;;;;;;5079426;28;20089;-82
2022/10/01 07:31:10;;;;;;;11.55;4.13;;;13.30;94.90;;;;;;5113877;28;20043;-82
2022/10/01 07:33:39;;;;;;;17.30;4.03;;;13.40;94.80;;;;;;5113397;28;20437;-86
2022/10/01 07:36:07;;;;;;;12.98;4.50;;;13.50;94.80;;;;;;5096071;28;20039;-85
2022/10/01 07:38:33;;;;;;;15.73;4.30;;;13.50;94.60;;;;;;5112341;28;20060;-81
2022/10/01 07:41:01;;;;;;;14.77;3.78;;;13.60;94.50;;;;;;5095137;28;20489;-80
2022/10/01 07:43:28;;;;;;;18.92;4.60;;;13.70;94.40;;;;;;5112375;28;20553;-81
2022/10/01 07:45:56;;;;;;;22.60;4.57;;;13.90;94.30;;;;;;5095374;28;20093;-83
2022/10/01 07:48:26;;;;;;;13.45;3.78;;;14.00;94.20;;;;;;5079279;28;20032;-82
2022/10/01 07:50:52;;;;;;;19.42;4.38;;;14.10;94.10;;;;;;5095557;28;20109;-83
2022/10/01 07:53:18;;;;;;;12.45;3.63;;;14.30;94.00;;;;;;5095224;28;20035;-82
2022/10/01 07:55:45;;;;;;;14.27;3.78;;;14.50;93.90;;;;;;5111860;28;20123;-82
2022/10/01 07:58:11;;;;;;;10.98;2.65;;;14.60;93.70;;;;;;5112035;28;20514;-82
2022/10/01 08:00:37;;;;;;;17.85;3.33;;;14.80;93.50;;;;;;5095201;28;20043;-81
2022/10/01 08:03:03;;;;;;;15.52;3.70;;;14.90;92.90;;;;;;5112442;28;20403;-83
2022/10/01 08:05:32;;;;;;;18.60;3.33;;;15.00;92.40;;;;;;5078356;28;20043;-82
2022/10/01 08:08:06;;;;;;;13.45;2.72;;;15.00;92.20;;;;;;5095245;28;20042;-84
2022/10/01 08:10:35;;;;;;;14.05;3.90;;;15.10;91.70;;;;;;5095448;28;20032;-82
2022/10/01 08:13:07;;;;;;;10.73;2.67;;;15.10;91.40;;;;;;5096216;28;20036;-82
2022/10/01 08:15:33;;;;;;;18.05;4.10;;;15.10;91.40;;;;;;5112483;28;20043;-82
2022/10/01 08:18:03;;;;;;;10.57;3.65;;;15.00;90.80;;;;;;5112253;28;20071;-82
2022/10/01 08:20:30;;;;;;;13.88;3.92;;;15.00;90.80;;;;;;5112147;28;20039;-84
2022/10/01 08:23:07;;;;;;;13.65;3.15;;;14.90;90.40;;;;;;5095408;28;20052;-83
2022/10/01 08:25:33;;;;;;;11.05;3.03;;;14.70;90.50;;;;;;5095251;28;20047;-85
2022/10/01 08:28:00;;;;;;;13.43;3.80;;;14.70;90.40;;;;;;5112182;28;20180;-84
2022/10/01 08:30:29;;;;;;;9.43;2.97;;;14.60;90.30;;;;;;5079181;28;20122;-81
2022/10/01 08:32:56;;;;;;;11.80;3.28;;;14.50;90.30;;;;;;5094965;28;20040;-83
2022/10/01 08:35:23;;;;;;;9.82;2.20;;;14.60;90.30;;;;;;5111740;28;20496;-81
2022/10/01 08:37:49;;;;;;;11.20;2.85;;;14.70;90.20;;;;;;5078400;28;20054;-79
2022/10/01 08:40:16;;;;;;;9.30;2.42;;;14.80;90.00;;;;;;5111676;28;20487;-80
2022/10/01 08:43:05;;;;;;;10.25;3.05;;;14.90;89.70;;;;;;5111765;28;20040;-83
2022/10/01 08:45:52;;;;;;;8.57;2.17;;;15.00;88.40;;;;;;5111851;28;20437;-82
2022/10/01 08:48:30;;;;;;;9.88;1.90;;;14.80;87.90;;;;;;5111967;28;20032;-81
2022/10/01 08:51:08;;;;;;;8.13;1.92;;;14.70;87.60;;;;;;5094736;28;20495;-81
2022/10/01 08:53:43;;;;;;;8.30;1.92;;;14.60;87.90;;;;;;5094593;28;20071;-81
2022/10/01 08:56:22;;;;;;;9.13;2.38;;;14.60;87.60;;;;;;5093440;28;20043;-81
2022/10/01 08:58:55;;;;;;;9.93;2.20;;;14.50;87.90;;;;;;5110894;28;20130;-80
2022/10/01 09:01:21;;;;;;;10.50;2.95;;;14.50;87.60;;;;;;5094807;28;20404;-81
2022/10/01 09:03:48;;;;;;;10.35;2.78;;;14.50;87.70;;;;;;5094807;28;20031;-81
2022/10/01 09:06:25;;;;;;;9.90;2.38;;;14.50;87.90;;;;;;5078016;28;20127;-83
2022/10/01 09:09:42;;;;;;;6.88;2.38;;;14.50;87.90;;;;;;5114232;28;20043;-79
2022/10/01 09:12:38;;;;;;;10.07;2.78;;;14.40;88.30;;;;;;5054541;28;20101;-82
2022/10/01 09:15:16;;;;;;;8.60;2.03;;;14.50;88.60;;;;;;5098234;28;20050;-80
2022/10/01 09:17:47;;;;;;;12.75;2.17;;;14.50;88.90;;;;;;5098130;28;20036;-84
2022/10/01 09:20:36;;;;;;;7.97;2.20;;;14.40;89.00;;;;;;5115499;28;20458;-83
2022/10/01 09:23:35;;;;;;;9.88;3.83;;;14.50;89.40;;;;;;5098243;28;20036;-80
2022/10/01 09:26:01;;;;;;;7.25;2.00;;;14.50;89.60;;;;;;5100616;28;20113;-79
2022/10/01 09:28:29;;;;;;;8.15;2.13;;;14.50;89.90;;;;;;5114982;28;20043;-79
2022/10/01 09:31:39;;;;;;;10.77;3.08;;;14.40;89.50;;;;;;5098290;28;20043;-83
2022/10/01 09:34:13;;;;;;;13.20;2.35;;;14.30;89.40;;;;;;5036832;28;20457;-83
2022/10/01 09:36:39;;;;;;;13.45;2.70;;;14.10;89.60;;;;;;5108108;28;20071;-81
2022/10/01 09:39:25;;;;;;;13.23;2.70;;;14.00;89.80;;;;;;5097753;28;20078;-84
2022/10/01 09:41:51;;;;;;;9.82;2.28;;;14.00;90.10;;;;;;5115016;28;20151;-85
2022/10/01 09:44:26;;;;;;;2.83;1.20;;;14.10;90.10;;;;;;5081144;28;20075;-85
2022/10/01 09:46:53;;;;;;;6.82;1.45;;;14.00;89.80;;;;;;5097636;28;20092;-80
2022/10/01 09:49:46;;;;;;;6.90;1.80;;;13.90;90.00;;;;;;5114869;28;20120;-85
2022/10/01 09:52:27;;;;;;;4.72;1.77;;;13.90;89.80;;;;;;5115041;28;20118;-80
2022/10/01 09:55:21;;;;;;;6.68;1.90;;;13.80;90.10;;;;;;5099708;28;20536;-82
2022/10/01 09:58:03;;;;;;;6.30;2.60;;;13.90;90.50;;;;;;5114586;28;20031;-82
2022/10/01 10:00:29;;;;;;;9.88;1.83;;;14.00;90.70;;;;;;5097767;28;20301;-82
2022/10/01 10:02:55;;;;;;;13.50;3.42;;;14.10;91.00;;;;;;5080702;28;20557;-85
2022/10/01 10:05:28;;;;;;;15.52;3.25;;;14.20;91.10;;;;;;5097229;28;20089;-86
2022/10/01 10:07:56;;;;;;;13.57;3.80;;;14.40;90.80;;;;;;5097458;28;20039;-83
2022/10/01 10:10:27;;;;;;;12.55;2.22;;;14.60;90.60;;;;;;5097717;28;20429;-83
2022/10/01 10:13:00;;;;;;;8.30;1.90;;;14.90;90.40;;;;;;5114291;28;20122;-82
2022/10/01 10:15:30;;;;;;;9.70;2.58;;;15.00;89.10;;;;;;5097147;28;20079;-82
2022/10/01 10:18:07;;;;;;;5.05;1.80;;;15.00;87.40;;;;;;5097248;28;20088;-83
2022/10/01 10:20:39;;;;;;;10.70;2.35;;;15.00;86.80;;;;;;5113585;28;20044;-81
2022/10/01 10:23:15;;;;;;;8.52;1.77;;;15.00;87.00;;;;;;5114254;28;20311;-82
2022/10/01 10:25:42;;;;;;;7.20;2.03;;;15.00;87.00;;;;;;5096945;28;20035;-82
2022/10/01 10:28:20;;;;;;;8.82;1.88;;;15.00;87.00;;;;;;5113718;28;20495;-80
2022/10/01 10:30:47;;;;;;;13.10;2.33;;;15.00;87.00;;;;;;5096833;28;20036;-81
2022/10/01 10:33:13;;;;;;;9.95;2.33;;;15.00;87.10;;;;;;5097122;28;20054;-84
2022/10/01 10:35:39;;;;;;;10.00;2.40;;;15.00;87.40;;;;;;5096428;28;20519;-80
2022/10/01 10:38:14;;;;;;;9.55;3.28;;;15.10;87.10;;;;;;5080062;28;20051;-84
2022/10/01 10:40:42;;;;;;;12.40;2.47;;;15.10;87.00;;;;;;5113593;28;20055;-82
2022/10/01 10:43:24;;;;;;;13.13;2.30;;;15.30;87.00;;;;;;5079593;28;20492;-82
2022/10/01 10:45:57;;;;;;;7.28;2.38;;;15.40;87.40;;;;;;5096537;28;20039;-82
2022/10/01 10:48:42;;;;;;;13.05;3.53;;;15.50;87.60;;;;;;5096735;28;20442;-82
2022/10/01 10:51:09;;;;;;;17.38;4.53;;;15.50;87.20;;;;;;5096469;28;20046;-81
2022/10/01 10:53:45;;;;;;;10.40;2.92;;;15.60;87.20;;;;;;5113319;28;20048;-80
2022/10/01 10:56:23;;;;;;;15.38;4.05;;;15.70;86.90;;;;;;5096292;28;20055;-81
2022/10/01 10:58:52;;;;;;;15.27;2.22;;;15.70;86.80;;;;;;5096268;28;20402;-80
2022/10/01 11:01:28;;;;;;;9.35;2.50;;;15.90;86.60;;;;;;5079862;28;20454;-82
2022/10/01 11:03:59;;;;;;;8.25;1.60;;;16.00;86.00;;;;;;5096135;28;20047;-79
2022/10/01 11:06:25;;;;;;;8.68;2.08;;;16.10;83.30;;;;;;5113017;28;20051;-80
2022/10/01 11:09:06;;;;;;;8.82;2.42;;;16.30;82.10;;;;;;5079441;28;20031;-80
2022/10/01 11:11:40;;;;;;;5.45;1.75;;;16.40;81.40;;;;;;5096249;28;20066;-80
2022/10/01 11:14:21;;;;;;;13.65;3.35;;;16.40;80.10;;;;;;5095886;28;20036;-79
2022/10/01 11:17:03;;;;;;;8.82;1.70;;;16.40;79.90;;;;;;5112682;28;20188;-81
2022/10/01 11:19:40;;;;;;;9.88;1.63;;;16.40;78.70;;;;;;5095779;28;20048;-79
2022/10/01 11:22:27;;;;;;;10.38;2.53;;;16.50;78.40;;;;;;5095892;28;20232;-79
2022/10/01 11:25:08;;;;;;;8.68;2.13;;;16.40;78.30;;;;;;5112733;28;20043;-79
2022/10/01 11:28:02;;;;;;;11.00;2.20;;;16.30;79.10;;;;;;5112712;28;20040;-80
2022/10/01 11:30:40;;;;;;;7.63;2.07;;;16.10;80.50;;;;;;5112617;28;20035;-79
2022/10/01 11:33:24;;;;;;;8.98;2.08;;;16.10;81.10;;;;;;5112323;28;20036;-79
2022/10/01 11:36:05;;;;;;;8.80;2.40;;;16.00;81.10;;;;;;5112925;28;20101;-79
2022/10/01 11:38:38;;;;;;;4.88;1.80;;;15.90;79.90;;;;;;5095457;28;20519;-80
2022/10/01 11:41:04;;;;;;;7.63;2.40;;;15.90;79.60;;;;;;5112793;28;20422;-81
2022/10/01 11:43:39;;;;;;;8.27;1.70;;;15.80;80.30;;;;;;5112729;28;20051;-80
2022/10/01 11:46:31;;;;;;;5.88;1.83;;;15.80;80.20;;;;;;5095505;28;20047;-84
2022/10/01 11:49:20;;;;;;;6.80;1.40;;;15.80;80.60;;;;;;5101734;28;20440;-80
2022/10/01 11:51:54;;;;;;;8.15;2.00;;;15.90;81.70;;;;;;5094579;28;20082;-77
2022/10/01 11:54:26;;;;;;;7.93;1.77;;;16.00;81.70;;;;;;5095290;28;20035;-80
2022/10/01 11:59:53;;;;;;;8.60;2.38;;;16.10;81.10;;;;;;5112043;28;20039;-78
2022/10/01 12:02:37;;;;;;;7.45;2.20;;;16.10;81.20;;;;;;5112377;28;20036;-80
2022/10/01 12:05:09;;;;;;;9.30;2.80;;;16.30;81.60;;;;;;5095192;28;20044;-80
2022/10/01 12:08:05;;;;;;;9.90;2.10;;;16.40;81.90;;;;;;5095237;28;20039;-81
2022/10/01 12:11:10;;;;;;;6.25;1.67;;;16.50;81.40;;;;;;5082440;28;20044;-82
2022/10/01 12:13:46;;;;;;;10.88;2.38;;;16.80;79.50;;;;;;5095491;28;20119;-79
2022/10/01 12:16:19;;;;;;;12.15;3.03;;;16.90;78.50;;;;;;5111992;28;20046;-80
2022/10/01 12:19:00;;;;;;;10.47;2.30;;;16.90;78.50;;;;;;5112272;28;20130;-80
2022/10/01 12:21:32;;;;;;;11.10;2.63;;;16.90;78.00;;;;;;5103169;28;20288;-81
2022/10/01 12:24:04;;;;;;;9.05;2.70;;;16.70;78.70;;;;;;5101576;28;20051;-80
2022/10/01 12:26:59;;;;;;;13.32;2.70;;;16.60;78.90;;;;;;5074627;28;20043;-81
2022/10/01 12:29:37;;;;;;;;;;;16.50;80.00;;;;;;5092123;28;20083;-78
2022/10/01 12:32:22;;;;;;;8.30;2.30;;;16.30;79.30;;;;;;5091555;28;19916;-79
2022/10/01 12:35:17;;;;;;;;;;;16.00;80.10;;;;;;5075278;28;20036;-80
2022/10/01 12:37:56;;;;;;;6.13;1.77;;;15.70;80.60;;;;;;4988089;28;19921;-84
2022/10/01 12:40:36;;;;;;;5.32;1.73;;;15.50;79.40;;;;;;5094678;28;20116;-78
2022/10/01 12:43:19;;;;;;;8.07;2.40;;;15.50;80.00;;;;;;5093266;28;20143;-80
2022/10/01 12:45:52;;;;;;;10.05;3.03;;;15.60;81.90;;;;;;5078607;28;20043;-83
2022/10/01 12:48:28;;;;;;;11.43;2.45;;;15.80;83.10;;;;;;5095617;28;20032;-81
2022/10/01 12:51:00;;;;;;;6.35;2.53;;;16.00;82.90;;;;;;5095855;28;20036;-78
2022/10/01 12:53:44;;;;;;;15.45;3.10;;;16.20;82.70;;;;;;5078663;28;20040;-77
2022/10/01 12:56:43;;;;;;;6.45;1.55;;;16.40;81.00;;;;;;5096968;28;20043;-80
2022/10/01 12:59:39;;;;;;;12.35;2.42;;;16.70;80.70;;;;;;5067894;28;20070;-83
2022/10/01 13:02:33;;;;;;;14.15;2.45;;;16.90;79.80;;;;;;5095524;28;20074;-86
2022/10/01 13:05:35;;;;;;;10.27;2.05;;;17.10;78.90;;;;;;5078432;28;20043;-82
2022/10/01 13:08:16;;;;;;;7.20;2.10;;;17.30;75.80;;;;;;5094997;28;20070;-80
2022/10/01 13:10:58;;;;;;;7.07;1.90;;;17.30;75.20;;;;;;5078497;28;20380;-83
2022/10/01 13:13:32;;;;;;;11.65;2.90;;;17.00;75.10;;;;;;5100089;28;20036;-79
2022/10/01 13:16:08;;;;;;;15.48;2.25;;;17.00;75.60;;;;;;5111640;28;20373;-77